createdAt,value
2023-05-08T00:01:52.954Z,101938.22
2023-05-08T00:04:21.497Z,101940.13
2023-05-08T00:06:50.033Z,101925.25
2023-05-08T00:09:17.887Z,101927.88
2023-05-08T00:11:45.747Z,101930.53
2023-05-08T00:14:15.074Z,101924.25
2023-05-08T00:16:43.011Z,101925.09
2023-05-08T00:19:10.926Z,101923.38
2023-05-08T00:21:39.065Z,101924.06
2023-05-08T00:24:07.387Z,101926.63
2023-05-08T00:26:35.280Z,101914.88
2023-05-08T00:29:05.013Z,101911.31
2023-05-08T00:31:35.361Z,101909.63
2023-05-08T00:34:03.290Z,101909.41
2023-05-08T00:36:32.325Z,101899.69
2023-05-08T00:39:00.240Z,101901.59
2023-05-08T00:41:28.137Z,101895.34
2023-05-08T00:43:56.020Z,101902.38
2023-05-08T00:46:23.958Z,101895.06
2023-05-08T00:48:53.256Z,101880.13
2023-05-08T00:51:21.146Z,101895.94
2023-05-08T00:53:49.011Z,101886.91
2023-05-08T00:56:16.965Z,101881.56
2023-05-08T00:58:45.690Z,101886.81
2023-05-08T01:01:13.688Z,101873.41
2023-05-08T01:03:41.792Z,101881.63
2023-05-08T01:06:11.166Z,101884.38
2023-05-08T01:08:39.033Z,101879.00
2023-05-08T01:11:14.136Z,101877.22
2023-05-08T01:14:02.470Z,101873.66
2023-05-08T01:16:33.422Z,101869.25
2023-05-08T01:19:03.890Z,101865.53
2023-05-08T01:21:45.198Z,101876.19
2023-05-08T01:24:51.460Z,101877.78
2023-05-08T01:27:41.499Z,101870.63
2023-05-08T01:30:35.132Z,101875.09
2023-05-08T01:33:07.689Z,101875.06
2023-05-08T01:35:37.892Z,101867.06
2023-05-08T01:38:09.740Z,101874.19
2023-05-08T01:40:41.961Z,101873.31
2023-05-08T01:43:14.533Z,101870.75
2023-05-08T01:45:46.047Z,101868.22
2023-05-08T01:48:23.583Z,101864.53
2023-05-08T01:50:56.930Z,101863.78
2023-05-08T01:53:27.303Z,101855.09
2023-05-08T01:55:58.333Z,101852.16
2023-05-08T01:58:26.180Z,101859.28
2023-05-08T02:00:54.113Z,101870.03
2023-05-08T02:03:23.723Z,101849.25
2023-05-08T02:05:52.429Z,101857.94
2023-05-08T02:08:20.345Z,101851.84
2023-05-08T02:10:48.697Z,101853.94
2023-05-08T02:13:19.161Z,101852.38
2023-05-08T02:15:47.613Z,101846.44
2023-05-08T02:18:15.559Z,101837.31
2023-05-08T02:20:44.853Z,101840.78
2023-05-08T02:23:12.723Z,101854.28
2023-05-08T02:25:40.664Z,101849.88
2023-05-08T02:28:08.555Z,101839.19
2023-05-08T02:30:36.399Z,101844.56
2023-05-08T02:33:04.705Z,101848.25
2023-05-08T02:35:32.726Z,101842.91
2023-05-08T02:38:01.985Z,101850.22
2023-05-08T02:40:30.142Z,101850.09
2023-05-08T02:42:58.040Z,101851.97
2023-05-08T02:45:27.841Z,101846.66
2023-05-08T02:48:10.076Z,101845.88
2023-05-08T02:50:39.937Z,101835.16
2023-05-08T02:53:10.775Z,101833.66
2023-05-08T02:55:41.621Z,101826.69
2023-05-08T02:58:14.171Z,101827.72
2023-05-08T03:00:44.819Z,101828.72
2023-05-08T03:03:15.022Z,101820.94
2023-05-08T03:05:46.096Z,101820.94
2023-05-08T03:08:17.276Z,101815.56
2023-05-08T03:10:46.238Z,101813.75
2023-05-08T03:13:14.195Z,101814.59
2023-05-08T03:15:43.796Z,101808.22
2023-05-08T03:18:12.709Z,101814.53
2023-05-08T03:20:43.265Z,101750.25
2023-05-08T03:23:11.355Z,101810.22
2023-05-08T03:25:41.493Z,101816.44
2023-05-08T03:28:09.488Z,101812.03
2023-05-08T03:30:38.563Z,101815.66
2023-05-08T03:33:07.515Z,101814.63
2023-05-08T03:35:36.635Z,101810.22
2023-05-08T03:38:04.532Z,101804.94
2023-05-08T03:40:32.445Z,101799.56
2023-05-08T03:43:01.735Z,101802.25
2023-05-08T03:45:29.663Z,101799.47
2023-05-08T03:47:57.576Z,101798.84
2023-05-08T03:50:25.692Z,101796.31
2023-05-08T03:52:53.664Z,101786.59
2023-05-08T03:55:21.614Z,101785.81
2023-05-08T03:57:52.042Z,101796.63
2023-05-08T04:00:26.290Z,101791.03
2023-05-08T04:02:57.797Z,101783.06
2023-05-08T04:05:27.218Z,101780.38
2023-05-08T04:07:57.985Z,101771.53
2023-05-08T04:10:28.103Z,101776.91
2023-05-08T04:12:58.900Z,101774.22
2023-05-08T04:15:30.062Z,101771.41
2023-05-08T04:18:00.439Z,101720.72
2023-05-08T04:20:29.007Z,101772.19
2023-05-08T04:22:56.922Z,101780.16
2023-05-08T04:25:24.974Z,101773.94
2023-05-08T04:27:53.215Z,101778.34
2023-05-08T04:30:21.116Z,101778.22
2023-05-08T04:32:50.382Z,101778.34
2023-05-08T04:35:18.293Z,101771.91
2023-05-08T04:37:46.352Z,101779.00
2023-05-08T04:40:14.341Z,101779.00
2023-05-08T04:42:43.115Z,101780.81
2023-05-08T04:45:12.134Z,101775.34
2023-05-08T04:47:40.179Z,101771.75
2023-05-08T04:50:10.532Z,101773.47
2023-05-08T04:52:38.439Z,101775.19
2023-05-08T04:55:07.168Z,101774.34
2023-05-08T04:57:35.035Z,101776.13
2023-05-08T05:00:03.215Z,101779.53
2023-05-08T05:02:31.664Z,101773.25
2023-05-08T05:05:01.397Z,101771.22
2023-05-08T05:07:30.748Z,101774.59
2023-05-08T05:09:58.675Z,101765.84
2023-05-08T05:12:26.801Z,101777.63
2023-05-08T05:14:54.914Z,101778.50
2023-05-08T05:17:22.999Z,101777.63
2023-05-08T05:19:53.705Z,101778.44
2023-05-08T05:22:21.955Z,101773.28
2023-05-08T05:24:51.729Z,101780.41
2023-05-08T05:27:21.354Z,101773.56
2023-05-08T05:29:49.743Z,101781.28
2023-05-08T05:32:17.597Z,101776.78
2023-05-08T05:34:45.763Z,101781.19
2023-05-08T05:37:14.407Z,101783.16
2023-05-08T05:39:42.428Z,101778.66
2023-05-08T05:42:11.849Z,101784.66
2023-05-08T05:44:40.270Z,101781.28
2023-05-08T05:47:10.385Z,101784.00
2023-05-08T05:49:39.736Z,101772.66
2023-05-08T05:52:08.438Z,101789.22
2023-05-08T05:54:36.416Z,101789.22
2023-05-08T05:57:04.873Z,101790.81
2023-05-08T05:59:34.401Z,101787.28
2023-05-08T06:02:02.482Z,101788.09
2023-05-08T06:04:30.656Z,101783.50
2023-05-08T06:06:58.696Z,101785.88
2023-05-08T06:09:26.751Z,101785.75
2023-05-08T06:11:54.814Z,101770.72
2023-05-08T06:14:22.698Z,101790.16
2023-05-08T06:16:52.135Z,101785.56
2023-05-08T06:19:20.146Z,101778.28
2023-05-08T06:21:48.083Z,101773.53
2023-05-08T06:24:16.523Z,101773.59
2023-05-08T06:26:44.403Z,101775.19
2023-05-08T06:29:12.410Z,101767.22
2023-05-08T06:31:40.310Z,101765.47
2023-05-08T06:34:09.590Z,101762.78
2023-05-08T06:36:37.522Z,101773.25
2023-05-08T06:39:06.097Z,101772.28
2023-05-08T06:41:33.976Z,101770.38
2023-05-08T06:44:01.869Z,101783.75
2023-05-08T06:46:30.020Z,101783.41
2023-05-08T06:48:57.956Z,101775.13
2023-05-08T06:51:27.257Z,101780.19
2023-05-08T06:53:55.871Z,101780.75
2023-05-08T06:56:24.590Z,101779.47
2023-05-08T06:59:00.895Z,101779.16
2023-05-08T07:01:37.498Z,101779.66
2023-05-08T07:04:06.084Z,101778.47
2023-05-08T07:06:35.399Z,101781.09
2023-05-08T07:09:03.313Z,101769.41
2023-05-08T07:11:31.368Z,101769.56
2023-05-08T07:14:00.180Z,101759.53
2023-05-08T07:16:28.201Z,101762.91
2023-05-08T07:18:56.449Z,101767.34
2023-05-08T07:21:24.327Z,101770.03
2023-05-08T07:23:54.670Z,101756.44
2023-05-08T07:26:22.809Z,101755.16
2023-05-08T07:28:53.789Z,101759.16
2023-05-08T07:31:21.944Z,101757.06
2023-05-08T07:33:49.877Z,101749.44
2023-05-08T07:36:17.706Z,101743.81
2023-05-08T07:38:46.014Z,101742.06
2023-05-08T07:41:15.347Z,101738.25
2023-05-08T07:43:45.275Z,101730.03
2023-05-08T07:46:18.022Z,101729.44
2023-05-08T07:48:46.256Z,101725.56
2023-05-08T07:51:14.500Z,101722.63
2023-05-08T07:53:42.638Z,101710.22
2023-05-08T07:56:10.642Z,101700.13
2023-05-08T07:58:40.457Z,101697.03
2023-05-08T08:01:08.503Z,101698.00
2023-05-08T08:03:36.703Z,101707.97
2023-05-08T08:06:05.035Z,101710.03
2023-05-08T08:08:32.908Z,101713.66
2023-05-08T08:11:03.065Z,101698.59
2023-05-08T08:13:32.791Z,101716.91
2023-05-08T08:16:03.982Z,101723.59
2023-05-08T08:18:32.701Z,101728.22
2023-05-08T08:21:05.468Z,101722.50
2023-05-08T08:23:33.557Z,101711.41
2023-05-08T08:26:01.578Z,101704.75
2023-05-08T08:28:29.767Z,101708.50
2023-05-08T08:30:57.675Z,101707.56
2023-05-08T08:33:28.324Z,101708.50
2023-05-08T08:35:56.253Z,101710.03
2023-05-08T08:38:24.136Z,101710.91
2023-05-08T08:40:53.128Z,101717.75
2023-05-08T08:43:21.084Z,101709.59
2023-05-08T08:45:48.978Z,101712.34
2023-05-08T08:48:16.970Z,101714.38
2023-05-08T08:50:46.577Z,101707.28
2023-05-08T08:53:18.211Z,101707.56
2023-05-08T08:55:49.775Z,101709.75
2023-05-08T08:58:21.858Z,101694.59
2023-05-08T09:00:49.850Z,101705.09
2023-05-08T09:03:18.052Z,101708.56
2023-05-08T09:05:49.339Z,101704.13
2023-05-08T09:08:17.319Z,101709.38
2023-05-08T09:10:45.208Z,101708.63
2023-05-08T09:13:13.816Z,101705.25
2023-05-08T09:15:42.187Z,101699.88
2023-05-08T09:18:10.236Z,101688.94
2023-05-08T09:20:38.280Z,101683.56
2023-05-08T09:23:07.799Z,101681.44
2023-05-08T09:25:44.755Z,101685.31
2023-05-08T09:28:19.314Z,101676.00
2023-05-08T09:30:51.951Z,101675.94
2023-05-08T09:33:20.430Z,101676.44
2023-05-08T09:35:49.653Z,101647.47
2023-05-08T09:38:38.194Z,101669.59
2023-05-08T09:41:10.331Z,101665.94
2023-05-08T09:43:38.605Z,101657.97
2023-05-08T09:46:23.503Z,101666.41
2023-05-08T09:48:54.003Z,101665.75
2023-05-08T09:51:22.270Z,101662.13
2023-05-08T09:53:54.373Z,101657.50
2023-05-08T09:56:35.376Z,101663.25
2023-05-08T09:59:04.185Z,101659.50
2023-05-08T10:01:32.965Z,101657.28
2023-05-08T10:04:01.319Z,101661.34
2023-05-08T10:06:29.475Z,101661.13
2023-05-08T10:09:11.796Z,101676.69
2023-05-08T10:11:40.090Z,101662.69
2023-05-08T10:14:08.171Z,101678.84
2023-05-08T10:16:42.956Z,101675.69
2023-05-08T10:19:14.429Z,101650.09
2023-05-08T10:21:44.745Z,101647.56
2023-05-08T10:24:17.446Z,101654.88
2023-05-08T10:27:05.052Z,101659.28
2023-05-08T10:29:35.315Z,101665.84
2023-05-08T10:32:03.699Z,101664.09
2023-05-08T10:34:32.860Z,101658.53
2023-05-08T10:37:00.860Z,101653.63
2023-05-08T10:39:30.308Z,101660.16
2023-05-08T10:41:58.295Z,101668.41
2023-05-08T10:44:26.159Z,101671.09
2023-05-08T10:46:55.938Z,101673.31
2023-05-08T10:49:29.019Z,101670.41
2023-05-08T10:52:08.894Z,101669.03
2023-05-08T10:54:43.699Z,101664.50
2023-05-08T10:57:12.582Z,101657.69
2023-05-08T10:59:40.445Z,101641.81
2023-05-08T11:02:09.160Z,101638.16
2023-05-08T11:04:38.219Z,101634.94
2023-05-08T11:07:06.380Z,101637.13
2023-05-08T11:09:50.773Z,101636.06
2023-05-08T11:12:22.737Z,101640.25
2023-05-08T11:14:58.728Z,101642.78
2023-05-08T11:17:26.764Z,101637.25
2023-05-08T11:19:59.095Z,101635.56
2023-05-08T11:22:29.092Z,101642.56
2023-05-08T11:25:06.603Z,101648.91
2023-05-08T11:28:10.185Z,101647.22
2023-05-08T11:30:39.313Z,101647.16
2023-05-08T11:33:16.656Z,101645.44
2023-05-08T11:35:55.319Z,101653.53
2023-05-08T11:38:26.373Z,101654.88
2023-05-08T11:41:02.910Z,101651.72
2023-05-08T11:43:59.622Z,101636.81
2023-05-08T11:46:37.085Z,101635.97
2023-05-08T11:49:04.978Z,101644.91
2023-05-08T11:51:33.616Z,101648.34
2023-05-08T11:54:01.636Z,101648.34
2023-05-08T11:56:30.889Z,101650.22
2023-05-08T11:59:04.029Z,101649.44
2023-05-08T12:01:32.426Z,101631.66
2023-05-08T12:04:04.370Z,101638.97
2023-05-08T12:06:32.942Z,101633.78
2023-05-08T12:09:00.843Z,101628.28
2023-05-08T12:11:30.121Z,101633.78
2023-05-08T12:14:00.184Z,101636.75
2023-05-08T12:16:28.080Z,101644.97
2023-05-08T12:18:57.873Z,101628.66
2023-05-08T12:21:25.756Z,101629.25
2023-05-08T12:23:58.032Z,101628.41
2023-05-08T12:26:26.232Z,101625.16
2023-05-08T12:28:58.299Z,101623.91
2023-05-08T12:31:26.158Z,101592.66
2023-05-08T12:33:54.109Z,101627.56
2023-05-08T12:36:22.038Z,101626.03
2023-05-08T12:38:49.918Z,101628.13
2023-05-08T12:41:24.702Z,101629.59
2023-05-08T12:43:52.627Z,101636.13
2023-05-08T12:46:22.361Z,101632.31
2023-05-08T12:48:50.344Z,101623.25
2023-05-08T12:51:18.326Z,101629.84
2023-05-08T12:53:47.472Z,101640.03
2023-05-08T12:56:16.129Z,101645.41
2023-05-08T12:58:44.067Z,101646.56
2023-05-08T13:01:13.489Z,101645.78
2023-05-08T13:03:43.208Z,101654.72
2023-05-08T13:06:20.962Z,101647.59
2023-05-08T13:08:54.263Z,101646.66
2023-05-08T13:11:29.562Z,101652.03
2023-05-08T13:13:57.562Z,101656.44
2023-05-08T13:16:25.467Z,101640.50
2023-05-08T13:18:54.752Z,101644.03
2023-05-08T13:21:22.690Z,101641.63
2023-05-08T13:23:54.547Z,101648.94
2023-05-08T13:26:22.453Z,101633.06
2023-05-08T13:28:50.358Z,101644.81
2023-05-08T13:31:18.366Z,101647.00
2023-05-08T13:33:46.522Z,101647.44
2023-05-08T13:36:15.888Z,101636.28
2023-05-08T13:38:43.857Z,101640.13
2023-05-08T13:41:11.759Z,101632.13
2023-05-08T13:43:40.021Z,101640.19
2023-05-08T13:46:07.993Z,101632.91
2023-05-08T13:48:35.952Z,101632.91
2023-05-08T13:51:03.912Z,101616.97
2023-05-08T13:53:33.173Z,101630.03
2023-05-08T13:56:01.072Z,101630.81
2023-05-08T13:58:29.018Z,101634.53
2023-05-08T14:00:56.979Z,101630.72
2023-05-08T14:03:25.115Z,101635.81
2023-05-08T14:05:53.080Z,101636.59
2023-05-08T14:08:20.938Z,101640.91
2023-05-08T14:10:51.298Z,101636.50
2023-05-08T14:13:20.306Z,101633.72
2023-05-08T14:15:48.302Z,101632.78
2023-05-08T14:18:16.224Z,101628.16
2023-05-08T14:20:48.965Z,101630.84
2023-05-08T14:23:19.608Z,101639.09
2023-05-08T14:25:47.700Z,101644.47
2023-05-08T14:28:16.990Z,101633.81
2023-05-08T14:30:44.915Z,101631.03
2023-05-08T14:33:12.986Z,101631.03
2023-05-08T14:35:43.229Z,101635.38
2023-05-08T14:38:11.947Z,101615.56
2023-05-08T14:40:41.505Z,101618.34
2023-05-08T14:43:09.727Z,101606.81
2023-05-08T14:45:39.040Z,101626.16
2023-05-08T14:48:07.778Z,101617.97
2023-05-08T14:50:35.748Z,101617.97
2023-05-08T14:53:03.774Z,101620.75
2023-05-08T14:55:32.244Z,101616.44
2023-05-08T14:58:00.320Z,101615.38
2023-05-08T15:00:28.234Z,101611.16
2023-05-08T15:02:57.871Z,101597.31
2023-05-08T15:05:26.191Z,101609.97
2023-05-08T15:07:54.425Z,101615.44
2023-05-08T15:10:34.655Z,101605.94
2023-05-08T15:13:02.802Z,101608.31
2023-05-08T15:15:30.965Z,101607.91
2023-05-08T15:18:00.468Z,101606.31
2023-05-08T15:20:28.544Z,101617.34
2023-05-08T15:22:56.447Z,101608.63
2023-05-08T15:25:25.721Z,101607.94
2023-05-08T15:27:53.826Z,101616.50
2023-05-08T15:30:22.248Z,101609.84
2023-05-08T15:32:50.310Z,101615.47
2023-05-08T15:35:20.057Z,101613.84
2023-05-08T15:37:48.187Z,101613.06
2023-05-08T15:40:16.380Z,101607.19
2023-05-08T15:42:44.422Z,101606.47
2023-05-08T15:45:12.453Z,101612.97
2023-05-08T15:47:40.602Z,101606.91
2023-05-08T15:50:09.191Z,101602.84
2023-05-08T15:52:38.537Z,101604.91
2023-05-08T15:55:07.064Z,101612.19
2023-05-08T15:57:35.059Z,101613.31
2023-05-08T16:00:03.115Z,101602.91
2023-05-08T16:02:31.237Z,101593.22
2023-05-08T16:04:59.261Z,101596.75
2023-05-08T16:07:27.176Z,101602.13
2023-05-08T16:09:56.436Z,101605.69
2023-05-08T16:12:24.767Z,101600.47
2023-05-08T16:14:52.695Z,101609.41
2023-05-08T16:17:20.821Z,101617.56
2023-05-08T16:19:48.908Z,101610.44
2023-05-08T16:22:16.840Z,101618.50
2023-05-08T16:24:45.056Z,101614.97
2023-05-08T16:27:14.612Z,101617.56
2023-05-08T16:29:42.484Z,101621.28
2023-05-08T16:32:10.382Z,101625.84
2023-05-08T16:34:38.616Z,101612.69
2023-05-08T16:37:06.469Z,101617.38
2023-05-08T16:39:34.582Z,101615.63
2023-05-08T16:42:03.185Z,101609.31
2023-05-08T16:44:32.572Z,101602.09
2023-05-08T16:47:00.923Z,101600.31
2023-05-08T16:49:28.828Z,101586.88
2023-05-08T16:51:56.779Z,101592.41
2023-05-08T16:54:24.776Z,101543.31
2023-05-08T16:56:52.703Z,101577.03
2023-05-08T16:59:20.789Z,101542.22
2023-05-08T17:01:50.117Z,101570.00
2023-05-08T17:04:17.939Z,101566.63
2023-05-08T17:06:45.827Z,101557.88
2023-05-08T17:09:13.733Z,101557.09
2023-05-08T17:11:41.630Z,101555.44
2023-05-08T17:14:09.668Z,101539.28
2023-05-08T17:16:38.163Z,101543.41
2023-05-08T17:19:08.422Z,101535.88
2023-05-08T17:21:36.291Z,101529.13
2023-05-08T17:24:04.209Z,101518.88
2023-05-08T17:26:34.890Z,101516.03
2023-05-08T17:29:02.762Z,101517.31
2023-05-08T17:31:30.715Z,101490.81
2023-05-08T17:33:58.686Z,101524.69
2023-05-08T17:36:28.020Z,101517.56
2023-05-08T17:38:56.442Z,101512.19
2023-05-08T17:41:24.341Z,101516.63
2023-05-08T17:43:53.420Z,101516.63
2023-05-08T17:46:21.473Z,101507.59
2023-05-08T17:48:49.592Z,101512.00
2023-05-08T17:51:17.473Z,101511.13
2023-05-08T17:53:46.981Z,101516.41
2023-05-08T17:56:16.277Z,101516.25
2023-05-08T17:58:44.211Z,101492.94
2023-05-08T18:01:12.123Z,101496.56
2023-05-08T18:03:40.333Z,101499.44
2023-05-08T18:06:08.542Z,101492.44
2023-05-08T18:08:36.499Z,101498.66
2023-05-08T18:11:05.943Z,101508.28
2023-05-08T18:13:34.795Z,101509.13
2023-05-08T18:16:02.876Z,101503.84
2023-05-08T18:18:31.023Z,101494.25
2023-05-08T18:20:59.079Z,101453.59
2023-05-08T18:23:27.087Z,101443.53
2023-05-08T18:25:55.036Z,101489.38
2023-05-08T18:28:24.491Z,101497.28
2023-05-08T18:30:52.492Z,101502.38
2023-05-08T18:33:20.374Z,101494.81
2023-05-08T18:35:48.292Z,101489.16
2023-05-08T18:38:17.640Z,101489.81
2023-05-08T18:40:45.682Z,101497.66
2023-05-08T18:43:13.611Z,101495.63
2023-05-08T18:45:42.985Z,101498.13
2023-05-08T18:48:11.400Z,101500.66
2023-05-08T18:50:39.612Z,101498.53
2023-05-08T18:53:08.807Z,101502.78
2023-05-08T18:55:36.984Z,101499.13
2023-05-08T18:58:06.065Z,101485.56
2023-05-08T19:00:34.050Z,101470.97
2023-05-08T19:03:03.567Z,101492.78
2023-05-08T19:05:31.762Z,101482.09
2023-05-08T19:07:59.706Z,101483.09
2023-05-08T19:10:27.702Z,101488.53
2023-05-08T19:12:55.939Z,101483.09
2023-05-08T19:15:23.883Z,101493.91
2023-05-08T19:17:52.861Z,101493.91
2023-05-08T19:20:22.546Z,101488.63
2023-05-08T19:22:50.688Z,101490.47
2023-05-08T19:25:18.552Z,101493.25
2023-05-08T19:27:46.462Z,101505.91
2023-05-08T19:30:14.784Z,101497.09
2023-05-08T19:32:42.922Z,101499.00
2023-05-08T19:35:11.129Z,101499.00
2023-05-08T19:37:40.413Z,101499.06
2023-05-08T19:40:09.660Z,101487.56
2023-05-08T19:42:37.554Z,101500.22
2023-05-08T19:45:06.361Z,101492.38
2023-05-08T19:47:34.316Z,101496.88
2023-05-08T19:50:02.227Z,101502.31
2023-05-08T19:52:30.320Z,101499.09
2023-05-08T19:55:00.149Z,101504.56
2023-05-08T19:57:28.189Z,101509.19
2023-05-08T19:59:56.150Z,101510.13
2023-05-08T20:02:24.220Z,101508.50
2023-05-08T20:07:32.160Z,101504.34
2023-05-08T20:10:01.818Z,101509.91
2023-05-08T20:12:29.816Z,101512.69
2023-05-08T20:14:57.786Z,101504.91
2023-05-08T20:17:25.670Z,101505.00
2023-05-08T20:19:53.623Z,101506.03
2023-05-08T20:22:21.763Z,101512.44
2023-05-08T20:24:49.863Z,101515.13
2023-05-08T20:27:19.160Z,101527.63
2023-05-08T20:29:47.073Z,101520.41
2023-05-08T20:32:16.485Z,101525.50
2023-05-08T20:34:45.197Z,101530.81
2023-05-08T20:37:13.187Z,101531.50
2023-05-08T20:39:41.106Z,101531.38
2023-05-08T20:42:09.117Z,101532.25
2023-05-08T20:44:38.602Z,101528.63
2023-05-08T20:47:06.510Z,101517.88
2023-05-08T20:49:34.443Z,101527.00
2023-05-08T20:52:02.327Z,101515.91
2023-05-08T20:54:30.325Z,101525.34
2023-05-08T20:56:58.462Z,101516.41
2023-05-08T20:59:26.451Z,101519.97
2023-05-08T21:01:55.862Z,101523.44
2023-05-08T21:04:23.866Z,101518.06
2023-05-08T21:06:52.374Z,101507.41
2023-05-08T21:09:20.382Z,101510.78
2023-05-08T21:11:48.303Z,101508.09
2023-05-08T21:14:16.241Z,101513.38
2023-05-08T21:16:44.185Z,101507.13
2023-05-08T21:19:17.209Z,101513.19
2023-05-08T21:21:45.164Z,101521.19
2023-05-08T21:24:13.039Z,101523.75
2023-05-08T21:26:40.931Z,101521.19
2023-05-08T21:29:10.783Z,101531.50
2023-05-08T21:31:38.739Z,101521.28
2023-05-08T21:34:07.579Z,101520.88
2023-05-08T21:36:36.882Z,101519.59
2023-05-08T21:39:05.029Z,101529.81
2023-05-08T21:41:33.099Z,101532.94
2023-05-08T21:44:01.076Z,101524.25
2023-05-08T21:46:29.148Z,101519.94
2023-05-08T21:48:57.047Z,101523.59
2023-05-08T21:51:24.922Z,101517.50
2023-05-08T21:53:54.154Z,101515.78
2023-05-08T21:56:22.785Z,101516.66
2023-05-08T21:58:51.111Z,101506.88
2023-05-08T22:01:19.005Z,101501.59
2023-05-08T22:03:47.105Z,101498.91
2023-05-08T22:06:15.166Z,101495.34
2023-05-08T22:08:43.831Z,101498.72
2023-05-08T22:11:13.104Z,101498.66
2023-05-08T22:13:40.988Z,101497.69
2023-05-08T22:16:09.357Z,101497.78
2023-05-08T22:18:37.287Z,101501.25
2023-05-08T22:21:05.315Z,101500.31
2023-05-08T22:23:34.391Z,101498.47
2023-05-08T22:26:02.927Z,101495.00
2023-05-08T22:28:32.182Z,101507.75
2023-05-08T22:31:00.040Z,101500.81
2023-05-08T22:33:32.221Z,101508.25
2023-05-08T22:36:00.095Z,101504.09
2023-05-08T22:38:28.024Z,101499.75
2023-05-08T22:40:57.452Z,101491.97
2023-05-08T22:43:25.355Z,101496.28
2023-05-08T22:45:54.795Z,101499.75
2023-05-08T22:48:22.706Z,101494.38
2023-05-08T22:50:50.639Z,101500.53
2023-05-08T22:53:18.535Z,101496.88
2023-05-08T22:55:46.465Z,101490.66
2023-05-08T22:58:14.332Z,101490.66
2023-05-08T23:00:42.281Z,101484.28
2023-05-08T23:03:11.551Z,101451.47
2023-05-08T23:05:39.419Z,101482.09
2023-05-08T23:08:07.487Z,101482.81
2023-05-08T23:10:35.384Z,101477.25
2023-05-08T23:13:03.351Z,101479.88
2023-05-08T23:15:31.230Z,101486.88
2023-05-08T23:17:59.121Z,101476.97
2023-05-08T23:20:28.473Z,101476.97
2023-05-08T23:22:56.727Z,101479.75
2023-05-08T23:25:24.760Z,101477.25
2023-05-08T23:27:52.661Z,101475.53
2023-05-08T23:30:20.881Z,101480.03
2023-05-08T23:32:48.924Z,101472.16
2023-05-08T23:35:16.963Z,101471.56
2023-05-08T23:37:46.398Z,101475.41
2023-05-08T23:40:14.471Z,101483.72
2023-05-08T23:42:42.401Z,101484.75
2023-05-08T23:45:12.069Z,101482.25
2023-05-08T23:47:40.137Z,101481.41
2023-05-08T23:50:08.663Z,101483.19
2023-05-08T23:52:36.593Z,101481.56
2023-05-08T23:55:06.834Z,101470.13
2023-05-08T23:57:34.727Z,101476.19
